Time;durP1;ratioP1;P1;durP2;ratioP2;P2;SDS_P1;SDS_P2;PMS_P1;PMS_P2;Temp;Humidity;BMP_temperature;BMP_pressure;BME280_temperature;BME280_humidity;BME280_pressure;Samples;Min_cycle;Max_cycle;Signal;HPM_P1;HPM_P2
2024/02/04 00:00:45;;;;;;;13.97;8.47;;;11.30;99.90;;;;;;4972755;28;20458;-71
2024/02/04 00:03:12;;;;;;;12.00;6.07;;;11.30;99.90;;;;;;4977083;28;20548;-72
2024/02/04 00:05:39;;;;;;;13.00;7.60;;;11.20;99.90;;;;;;4971754;28;20859;-71
2024/02/04 00:08:07;;;;;;;12.17;8.83;;;11.20;99.90;;;;;;4976212;28;20483;-70
2024/02/04 00:10:34;;;;;;;13.80;8.13;;;11.20;99.90;;;;;;4971674;28;20490;-70
2024/02/04 00:13:01;;;;;;;16.37;9.80;;;11.20;99.90;;;;;;4970893;28;20466;-71
2024/02/04 00:15:27;;;;;;;13.80;8.40;;;11.20;99.90;;;;;;4974768;28;20493;-71
2024/02/04 00:17:54;;;;;;;11.07;7.30;;;11.10;99.90;;;;;;4970388;28;21417;-70
2024/02/04 00:20:21;;;;;;;10.57;7.77;;;11.20;99.90;;;;;;4972664;28;21116;-71
2024/02/04 00:22:48;;;;;;;11.40;7.50;;;11.20;99.90;;;;;;4969757;28;20493;-71
2024/02/04 00:25:19;;;;;;;11.03;7.07;;;11.20;99.90;;;;;;4974893;28;20490;-70
2024/02/04 00:27:46;;;;;;;11.10;6.73;;;11.10;99.90;;;;;;4974023;28;20459;-71
2024/02/04 00:30:13;;;;;;;12.80;7.97;;;11.10;99.90;;;;;;4967713;28;20538;-70
2024/02/04 00:32:39;;;;;;;9.53;4.63;;;11.20;99.90;;;;;;4975677;28;20472;-70
2024/02/04 00:35:07;;;;;;;23.63;8.67;;;11.20;99.90;;;;;;4976565;28;20630;-70
2024/02/04 00:37:33;;;;;;;12.17;7.50;;;11.20;99.90;;;;;;4976845;28;20561;-70
2024/02/04 00:40:00;;;;;;;16.87;7.70;;;11.20;99.90;;;;;;4975953;28;20470;-71
2024/02/04 00:42:28;;;;;;;10.70;7.53;;;11.30;99.90;;;;;;4971354;28;20597;-70
2024/02/04 00:44:55;;;;;;;7.63;5.13;;;11.30;99.90;;;;;;4970307;28;20455;-71
2024/02/04 00:47:22;;;;;;;9.33;5.20;;;11.20;99.90;;;;;;4978857;28;20492;-71
2024/02/04 00:49:48;;;;;;;8.40;6.00;;;11.10;99.90;;;;;;4980442;28;20470;-70
2024/02/04 00:52:15;;;;;;;8.80;5.63;;;11.10;99.90;;;;;;4973847;28;20466;-70
2024/02/04 00:54:42;;;;;;;10.10;6.00;;;11.10;99.90;;;;;;4978873;28;20483;-71
2024/02/04 00:57:08;;;;;;;9.33;5.27;;;11.10;99.90;;;;;;4976500;28;20482;-70
2024/02/04 00:59:37;;;;;;;7.97;4.37;;;11.10;99.90;;;;;;4979145;28;20470;-71
2024/02/04 01:02:04;;;;;;;7.23;4.53;;;11.10;99.90;;;;;;4975211;28;20454;-71
2024/02/04 01:04:30;;;;;;;9.00;6.30;;;11.00;99.90;;;;;;4980176;28;20466;-71
2024/02/04 01:06:57;;;;;;;9.80;5.13;;;11.00;99.90;;;;;;4975458;28;20486;-71
2024/02/04 01:09:24;;;;;;;7.93;5.57;;;11.00;99.90;;;;;;4973984;28;20474;-71
2024/02/04 01:11:52;;;;;;;6.40;4.73;;;11.00;99.90;;;;;;4973239;28;20508;-69
2024/02/04 01:14:19;;;;;;;14.03;6.17;;;10.90;99.90;;;;;;4981053;28;20882;-70
2024/02/04 01:16:47;;;;;;;3.40;2.53;;;10.90;99.90;;;;;;4969168;28;20490;-71
2024/02/04 01:19:14;;;;;;;6.70;3.93;;;11.00;99.90;;;;;;4978700;28;20458;-70
2024/02/04 01:21:41;;;;;;;6.97;3.47;;;11.00;99.90;;;;;;4975340;28;20462;-71
2024/02/04 01:24:06;;;;;;;6.50;5.50;;;10.90;99.90;;;;;;4973095;28;20469;-71
2024/02/04 01:26:33;;;;;;;9.87;4.13;;;10.90;99.90;;;;;;4969240;28;20571;-71
2024/02/04 01:29:01;;;;;;;5.53;3.87;;;10.90;99.90;;;;;;4970861;28;20200;-71
2024/02/04 01:31:27;;;;;;;3.60;3.17;;;10.80;99.90;;;;;;4977060;28;20463;-71
2024/02/04 01:33:55;;;;;;;12.90;4.00;;;10.80;99.90;;;;;;4977116;28;20477;-71
2024/02/04 01:36:22;;;;;;;4.70;3.20;;;10.80;99.90;;;;;;4970759;28;20243;-71
2024/02/04 01:38:48;;;;;;;6.10;2.90;;;10.90;99.90;;;;;;4972827;28;20466;-71
2024/02/04 01:41:15;;;;;;;5.37;2.10;;;10.80;99.90;;;;;;4972556;28;20462;-71
2024/02/04 01:43:42;;;;;;;5.73;4.20;;;10.70;99.90;;;;;;4977139;28;20513;-71
2024/02/04 01:46:09;;;;;;;7.67;3.27;;;10.70;99.90;;;;;;4963264;28;20714;-71
2024/02/04 01:48:36;;;;;;;5.23;3.23;;;10.80;99.90;;;;;;4968441;28;20564;-71
2024/02/04 01:51:05;;;;;;;6.97;4.47;;;10.80;99.90;;;;;;4973378;28;20466;-70
2024/02/04 01:53:34;;;;;;;3.47;2.60;;;10.80;99.90;;;;;;4972853;28;20533;-70
2024/02/04 01:56:01;;;;;;;4.90;3.07;;;10.70;99.90;;;;;;4977267;28;20494;-71
2024/02/04 01:58:28;;;;;;;7.13;4.00;;;10.60;99.90;;;;;;4975830;28;20470;-70
2024/02/04 02:00:55;;;;;;;3.87;3.03;;;10.70;99.90;;;;;;4972316;28;20898;-70
2024/02/04 02:03:23;;;;;;;5.17;3.80;;;10.70;99.90;;;;;;4973882;28;20462;-71
2024/02/04 02:19:45;;;;;;;4.17;2.77;;;10.80;99.90;;;;;;4864954;28;21468;-72
2024/02/04 02:22:29;;;;;;;4.67;3.00;;;10.80;99.90;;;;;;4967159;28;20498;-71
2024/02/04 02:24:59;;;;;;;3.07;2.47;;;10.80;99.90;;;;;;4962583;28;20976;-71
2024/02/04 02:27:25;;;;;;;4.67;3.43;;;10.70;99.90;;;;;;4959621;28;26266;-70
2024/02/04 02:29:52;;;;;;;6.37;3.40;;;10.80;99.90;;;;;;4962848;28;20474;-71
2024/02/04 02:32:19;;;;;;;4.23;3.43;;;10.80;99.90;;;;;;4962904;28;20554;-71
2024/02/04 02:34:47;;;;;;;5.10;4.57;;;10.90;99.90;;;;;;4952571;28;20497;-71
2024/02/04 02:37:22;;;;;;;6.83;4.70;;;10.80;99.90;;;;;;4971919;28;20454;-72
2024/02/04 02:39:57;;;;;;;6.83;4.70;;;10.90;99.90;;;;;;4957328;28;20892;-72
2024/02/04 02:42:26;;;;;;;3.97;3.20;;;10.90;99.90;;;;;;4967344;28;20466;-70
2024/02/04 02:44:54;;;;;;;5.73;3.80;;;10.80;99.90;;;;;;4965585;28;20431;-71
2024/02/04 02:47:23;;;;;;;5.47;4.60;;;10.90;99.90;;;;;;4969607;28;20473;-70
2024/02/04 02:49:52;;;;;;;6.90;5.47;;;10.80;99.90;;;;;;4964506;28;20586;-71
2024/02/04 02:52:19;;;;;;;8.40;4.37;;;10.90;99.90;;;;;;4971653;28;20466;-71
2024/02/04 02:54:45;;;;;;;6.13;4.33;;;10.90;99.90;;;;;;4976513;28;20961;-71
2024/02/04 02:57:12;;;;;;;4.30;3.17;;;10.90;99.90;;;;;;4977996;28;20462;-71
2024/02/04 02:59:40;;;;;;;8.87;5.03;;;10.90;99.90;;;;;;4978251;28;20489;-71
2024/02/04 03:02:07;;;;;;;8.23;6.00;;;10.90;99.90;;;;;;4981194;28;20461;-70
2024/02/04 03:04:34;;;;;;;8.30;4.87;;;10.90;99.90;;;;;;4976861;28;20786;-70
2024/02/04 03:07:01;;;;;;;6.77;4.40;;;10.80;99.90;;;;;;4973568;28;20479;-70
2024/02/04 03:09:27;;;;;;;5.37;4.77;;;10.80;99.90;;;;;;4982138;28;20481;-71
2024/02/04 03:11:54;;;;;;;6.33;4.33;;;10.80;99.90;;;;;;4979817;28;20453;-71
2024/02/04 03:14:21;;;;;;;8.17;6.03;;;10.80;99.90;;;;;;4977847;28;20472;-72
2024/02/04 03:16:49;;;;;;;6.40;3.97;;;10.80;99.90;;;;;;4974760;28;20494;-71
2024/02/04 03:19:16;;;;;;;8.50;4.87;;;10.90;99.90;;;;;;4972549;28;20844;-71
2024/02/04 03:21:43;;;;;;;9.00;6.03;;;10.90;99.90;;;;;;4974577;28;20808;-71
2024/02/04 03:24:09;;;;;;;10.07;5.77;;;11.00;99.90;;;;;;4974408;28;20469;-70
2024/02/04 03:26:36;;;;;;;5.90;4.30;;;11.00;99.90;;;;;;4969486;28;20482;-72
2024/02/04 03:29:04;;;;;;;16.70;7.20;;;11.10;99.90;;;;;;4966382;28;20466;-70
2024/02/04 03:31:31;;;;;;;10.30;6.40;;;11.00;99.90;;;;;;4970485;28;20449;-70
2024/02/04 03:34:00;;;;;;;8.00;3.70;;;11.00;99.90;;;;;;4973511;28;21258;-71
2024/02/04 03:36:26;;;;;;;7.47;5.40;;;11.00;99.90;;;;;;4971383;28;20490;-71
2024/02/04 03:38:53;;;;;;;10.33;6.20;;;11.10;99.90;;;;;;4972161;28;20481;-71
2024/02/04 03:41:20;;;;;;;8.33;6.13;;;11.10;99.90;;;;;;4970511;28;20469;-70
2024/02/04 03:43:47;;;;;;;12.30;6.10;;;11.10;99.90;;;;;;4975068;28;20470;-70
2024/02/04 03:46:16;;;;;;;9.20;5.57;;;11.10;99.90;;;;;;4972625;28;20548;-70
2024/02/04 03:48:43;;;;;;;12.03;6.30;;;11.10;99.90;;;;;;4971627;28;20839;-71
2024/02/04 03:51:16;;;;;;;11.50;7.03;;;11.10;99.90;;;;;;4971554;28;20494;-71
2024/02/04 03:53:43;;;;;;;6.70;3.23;;;11.10;99.90;;;;;;4970540;28;20525;-70
2024/02/04 03:56:10;;;;;;;10.93;5.33;;;11.10;99.90;;;;;;4969782;28;20482;-71
2024/02/04 03:58:37;;;;;;;14.53;6.17;;;11.10;99.90;;;;;;4970314;28;20466;-71
2024/02/04 04:01:03;;;;;;;10.90;4.13;;;11.10;99.90;;;;;;4968436;28;20558;-71
2024/02/04 04:03:30;;;;;;;16.03;5.83;;;11.10;99.90;;;;;;4976802;28;20466;-70
2024/02/04 04:05:57;;;;;;;9.93;6.73;;;11.10;99.90;;;;;;4968998;28;22718;-71
2024/02/04 04:08:25;;;;;;;10.10;6.13;;;11.10;99.90;;;;;;4971472;28;20473;-71
2024/02/04 04:10:52;;;;;;;11.30;6.67;;;11.10;99.90;;;;;;4971776;28;20552;-70
2024/02/04 04:13:18;;;;;;;9.20;4.77;;;11.10;99.90;;;;;;4972709;28;20449;-71
2024/02/04 04:15:45;;;;;;;12.63;7.00;;;11.10;99.90;;;;;;4971797;28;20486;-70
2024/02/04 04:18:12;;;;;;;11.43;5.30;;;11.10;99.90;;;;;;4969185;28;20471;-70
2024/02/04 04:20:39;;;;;;;13.40;7.83;;;11.10;99.90;;;;;;4970713;28;20975;-71
2024/02/04 04:23:06;;;;;;;13.47;7.67;;;11.10;99.90;;;;;;4972986;28;20480;-71
2024/02/04 04:25:34;;;;;;;15.43;7.13;;;11.10;99.90;;;;;;4973810;28;20581;-70
2024/02/04 04:28:01;;;;;;;8.97;6.57;;;11.20;99.90;;;;;;4970136;28;20477;-71
2024/02/04 04:30:28;;;;;;;14.63;6.07;;;11.20;99.90;;;;;;4979014;28;20845;-71
2024/02/04 04:32:54;;;;;;;14.00;5.83;;;11.20;99.90;;;;;;4971762;28;20490;-71
2024/02/04 04:35:21;;;;;;;12.20;6.87;;;11.20;99.90;;;;;;4967861;28;20487;-71
2024/02/04 04:37:48;;;;;;;14.70;7.43;;;11.20;99.90;;;;;;4972150;28;20470;-72
2024/02/04 04:40:15;;;;;;;13.20;8.90;;;11.10;99.90;;;;;;4968883;28;20463;-72
2024/02/04 04:42:43;;;;;;;16.67;9.60;;;11.20;99.90;;;;;;4975143;28;20478;-72
2024/02/04 04:45:10;;;;;;;15.00;8.73;;;11.30;99.90;;;;;;4969267;28;20992;-71
2024/02/04 04:47:37;;;;;;;19.90;8.17;;;11.30;99.90;;;;;;4963627;28;23249;-71
2024/02/04 04:50:06;;;;;;;18.57;9.20;;;11.30;99.90;;;;;;4971432;28;20460;-70
2024/02/04 04:52:32;;;;;;;13.30;7.80;;;11.30;99.90;;;;;;4975018;28;20470;-71
2024/02/04 04:54:59;;;;;;;17.83;10.83;;;11.20;99.90;;;;;;4979129;28;20491;-71
2024/02/04 04:57:26;;;;;;;18.43;10.40;;;11.10;99.90;;;;;;4978112;28;20465;-71
2024/02/04 04:59:54;;;;;;;14.07;8.30;;;11.10;99.90;;;;;;4978885;28;20441;-71
2024/02/04 05:02:21;;;;;;;15.80;11.63;;;11.10;99.90;;;;;;4976207;28;20817;-70
2024/02/04 05:04:48;;;;;;;16.93;10.43;;;11.20;99.90;;;;;;4977062;28;20464;-71
2024/02/04 05:07:17;;;;;;;12.03;7.43;;;11.10;99.90;;;;;;4976182;28;20490;-71
2024/02/04 05:09:45;;;;;;;15.77;9.80;;;11.10;99.90;;;;;;4978955;28;20459;-70
2024/02/04 05:12:11;;;;;;;17.90;9.10;;;11.20;99.90;;;;;;4974751;28;20490;-70
2024/02/04 05:14:37;;;;;;;16.10;7.90;;;11.20;99.90;;;;;;4976625;28;20535;-71
2024/02/04 05:17:06;;;;;;;13.30;9.90;;;11.10;99.90;;;;;;4972466;28;20493;-70
2024/02/04 05:19:32;;;;;;;22.93;10.70;;;11.20;99.90;;;;;;4976927;28;20270;-71
2024/02/04 05:21:59;;;;;;;10.53;7.13;;;11.10;99.90;;;;;;4971042;28;20845;-70
2024/02/04 05:24:26;;;;;;;10.40;6.77;;;11.10;99.90;;;;;;4973726;28;20466;-71
2024/02/04 05:26:52;;;;;;;20.87;8.60;;;11.00;99.90;;;;;;4976528;28;20478;-71
2024/02/04 05:29:19;;;;;;;13.80;6.33;;;11.10;99.90;;;;;;4975231;28;20979;-71
2024/02/04 05:31:46;;;;;;;17.40;10.03;;;11.00;99.90;;;;;;4969997;28;20473;-71
2024/02/04 05:34:17;;;;;;;11.30;7.07;;;10.90;99.90;;;;;;4971735;28;20471;-71
2024/02/04 05:36:43;;;;;;;14.93;7.63;;;10.90;99.90;;;;;;4975109;28;21022;-71
2024/02/04 05:39:11;;;;;;;14.43;7.60;;;10.90;99.90;;;;;;4969217;28;20467;-71
2024/02/04 05:41:38;;;;;;;10.67;6.07;;;10.90;99.90;;;;;;4974232;28;20526;-70
2024/02/04 05:44:05;;;;;;;12.80;5.80;;;10.90;99.90;;;;;;4973792;28;20463;-70
2024/02/04 05:46:32;;;;;;;11.47;6.90;;;10.90;99.90;;;;;;4971552;28;20463;-70
2024/02/04 05:48:58;;;;;;;13.57;8.33;;;10.90;99.90;;;;;;4970681;28;20477;-71
2024/02/04 05:51:27;;;;;;;10.73;5.80;;;10.90;99.90;;;;;;4975914;28;20477;-70
2024/02/04 05:53:54;;;;;;;18.67;10.13;;;10.90;99.90;;;;;;4967971;28;20570;-71
2024/02/04 05:56:21;;;;;;;12.20;7.83;;;10.90;99.90;;;;;;4975395;28;20485;-71
2024/02/04 05:58:47;;;;;;;10.77;7.80;;;11.00;99.90;;;;;;4967187;28;20462;-71
2024/02/04 06:01:16;;;;;;;14.00;7.80;;;11.00;99.90;;;;;;4967822;28;20462;-71
2024/02/04 06:03:43;;;;;;;12.40;5.63;;;11.10;99.90;;;;;;4972035;28;20467;-71
2024/02/04 06:06:10;;;;;;;14.77;7.40;;;11.00;99.90;;;;;;4978093;28;20547;-71
2024/02/04 06:08:38;;;;;;;17.37;7.00;;;11.00;99.90;;;;;;4972737;28;20462;-72
2024/02/04 06:11:05;;;;;;;14.37;7.80;;;11.00;99.90;;;;;;4977689;28;20463;-71
2024/02/04 06:13:31;;;;;;;8.50;5.60;;;11.00;99.90;;;;;;4970367;28;20458;-71
2024/02/04 06:15:58;;;;;;;8.77;5.13;;;11.00;99.90;;;;;;4969912;28;20487;-71
2024/02/04 06:18:25;;;;;;;13.57;5.93;;;10.90;99.90;;;;;;4976187;28;20543;-71
2024/02/04 06:20:51;;;;;;;11.83;6.90;;;11.00;99.90;;;;;;4975605;28;20466;-70
2024/02/04 06:23:19;;;;;;;3.27;2.83;;;10.90;99.90;;;;;;4977387;28;20862;-70
2024/02/04 06:25:48;;;;;;;8.77;4.47;;;10.90;99.90;;;;;;4973962;28;20570;-71
2024/02/04 06:28:14;;;;;;;17.13;5.13;;;10.90;99.90;;;;;;4972821;28;20506;-71
2024/02/04 06:30:41;;;;;;;9.33;5.90;;;10.90;99.90;;;;;;4978180;28;20462;-71
2024/02/04 06:33:08;;;;;;;11.13;6.10;;;11.00;99.90;;;;;;4975867;28;20972;-71
2024/02/04 06:35:34;;;;;;;9.03;6.43;;;11.00;99.90;;;;;;4973423;28;20482;-71
2024/02/04 06:38:01;;;;;;;13.40;7.17;;;11.00;99.90;;;;;;4970038;28;20485;-71
2024/02/04 06:40:28;;;;;;;12.33;6.83;;;11.00;99.90;;;;;;4965194;28;20988;-70
2024/02/04 06:42:56;;;;;;;14.47;6.23;;;11.00;99.90;;;;;;4968581;28;20466;-71
2024/02/04 06:45:23;;;;;;;18.97;10.00;;;11.00;99.90;;;;;;4972264;28;20483;-70
2024/02/04 06:47:49;;;;;;;15.53;9.33;;;11.10;99.90;;;;;;4965794;28;20455;-71
2024/02/04 06:50:16;;;;;;;15.30;9.70;;;11.10;99.90;;;;;;4974195;28;20458;-71
2024/02/04 06:52:44;;;;;;;15.10;8.13;;;11.10;99.90;;;;;;4974197;28;20491;-70
2024/02/04 06:55:11;;;;;;;16.10;6.60;;;11.00;99.90;;;;;;4975866;28;20478;-71
2024/02/04 06:57:39;;;;;;;12.20;6.60;;;11.00;99.90;;;;;;4976729;28;20500;-71
2024/02/04 07:00:08;;;;;;;11.17;7.97;;;11.00;99.90;;;;;;4972281;28;20466;-70
2024/02/04 07:02:35;;;;;;;9.77;5.70;;;10.90;99.90;;;;;;4971796;28;20478;-70
2024/02/04 07:05:02;;;;;;;13.60;7.63;;;10.90;99.90;;;;;;4972738;28;20467;-71
2024/02/04 07:07:29;;;;;;;13.53;7.60;;;10.90;99.90;;;;;;4971457;28;20477;-71
2024/02/04 07:09:57;;;;;;;9.10;6.73;;;10.80;99.90;;;;;;4972365;28;20463;-70
2024/02/04 07:12:23;;;;;;;12.03;6.60;;;10.80;99.90;;;;;;4974174;28;20822;-70
2024/02/04 07:14:50;;;;;;;12.33;6.47;;;10.80;99.90;;;;;;4977541;28;20469;-70
2024/02/04 07:17:18;;;;;;;9.00;8.20;;;10.80;99.90;;;;;;4973323;28;20494;-70
2024/02/04 07:19:45;;;;;;;9.83;6.03;;;10.80;99.90;;;;;;4980280;28;20465;-70
2024/02/04 07:22:11;;;;;;;11.80;6.30;;;10.80;99.90;;;;;;4968928;28;20835;-70
2024/02/04 07:24:38;;;;;;;9.27;6.37;;;10.90;99.90;;;;;;4970001;28;20466;-70
2024/02/04 07:27:05;;;;;;;14.23;5.97;;;10.90;99.90;;;;;;4975460;28;20909;-70
2024/02/04 07:29:32;;;;;;;10.40;6.93;;;10.90;99.90;;;;;;4983496;28;21157;-72
2024/02/04 07:31:58;;;;;;;15.53;8.33;;;11.00;99.90;;;;;;4978668;28;20473;-71
2024/02/04 07:34:27;;;;;;;17.50;8.50;;;11.00;99.90;;;;;;4974924;28;20533;-71
2024/02/04 07:36:53;;;;;;;14.13;8.00;;;11.00;99.90;;;;;;4974227;28;20487;-71
2024/02/04 07:39:20;;;;;;;11.30;7.67;;;11.00;99.90;;;;;;4974668;28;20484;-71
2024/02/04 07:41:47;;;;;;;12.17;6.63;;;11.00;99.90;;;;;;4977129;28;21767;-70
2024/02/04 07:44:14;;;;;;;14.83;7.17;;;11.00;99.90;;;;;;4979734;28;20462;-70
2024/02/04 07:46:41;;;;;;;12.50;5.43;;;11.00;99.90;;;;;;4978313;28;20502;-70
2024/02/04 07:49:06;;;;;;;15.47;7.83;;;11.00;99.90;;;;;;4981096;28;20463;-72
2024/02/04 07:51:36;;;;;;;15.37;9.03;;;11.00;99.90;;;;;;4976280;28;20834;-71
2024/02/04 07:54:02;;;;;;;11.93;6.43;;;11.10;99.90;;;;;;4981748;28;20576;-71
2024/02/04 07:56:29;;;;;;;14.53;8.33;;;11.00;99.90;;;;;;4980071;28;20999;-71
2024/02/04 07:58:56;;;;;;;14.30;8.40;;;11.10;99.90;;;;;;4979625;28;20467;-71
2024/02/04 08:01:23;;;;;;;13.40;6.20;;;11.10;99.90;;;;;;4976984;28;20450;-71
2024/02/04 08:03:50;;;;;;;13.20;7.50;;;11.10;99.90;;;;;;4979802;28;20466;-70
2024/02/04 08:06:17;;;;;;;6.40;3.07;;;11.10;99.90;;;;;;4978014;28;20492;-70
2024/02/04 08:08:47;;;;;;;11.23;5.87;;;11.10;99.90;;;;;;4975724;23;20634;-70
2024/02/04 08:11:17;;;;;;;15.47;10.00;;;11.10;99.90;;;;;;4951265;28;20463;-70
2024/02/04 08:13:44;;;;;;;8.80;5.23;;;11.10;99.90;;;;;;4947598;28;20463;-70
2024/02/04 08:16:11;;;;;;;12.30;5.70;;;11.10;99.90;;;;;;4941878;28;20912;-70
2024/02/04 08:18:38;;;;;;;6.63;4.43;;;11.00;99.90;;;;;;4934997;28;20537;-70
2024/02/04 08:21:05;;;;;;;10.20;6.63;;;11.00;99.90;;;;;;4940061;28;20574;-70
2024/02/04 08:23:33;;;;;;;10.80;6.83;;;11.00;99.90;;;;;;4936552;28;20479;-70
2024/02/04 08:26:01;;;;;;;12.00;7.10;;;10.90;99.90;;;;;;4941966;28;20475;-69
2024/02/04 08:28:27;;;;;;;11.30;6.00;;;10.90;99.90;;;;;;4933829;28;20456;-71
2024/02/04 08:30:53;;;;;;;14.80;7.10;;;10.90;99.90;;;;;;4932684;28;20460;-70
2024/02/04 08:33:20;;;;;;;9.13;6.27;;;11.00;99.90;;;;;;4935749;28;20546;-70
2024/02/04 08:35:47;;;;;;;9.07;6.77;;;10.90;99.90;;;;;;4941673;28;21698;-70
2024/02/04 08:38:13;;;;;;;10.50;5.53;;;10.90;99.90;;;;;;4942899;28;20527;-71
2024/02/04 08:40:40;;;;;;;15.33;5.50;;;11.00;99.90;;;;;;4942766;28;20483;-71
2024/02/04 08:43:08;;;;;;;9.33;4.00;;;11.10;99.90;;;;;;4936725;28;20498;-70
2024/02/04 08:45:35;;;;;;;6.77;4.67;;;11.10;99.90;;;;;;4945167;28;20495;-70
2024/02/04 08:48:02;;;;;;;7.70;4.60;;;11.20;99.90;;;;;;4942727;28;20460;-72
2024/02/04 08:50:30;;;;;;;4.43;3.10;;;11.20;99.90;;;;;;4940993;28;20468;-71
2024/02/04 08:52:56;;;;;;;7.17;4.27;;;11.20;99.90;;;;;;4943294;28;20482;-71
2024/02/04 08:55:23;;;;;;;5.60;3.83;;;11.20;99.90;;;;;;4940952;28;20488;-71
2024/02/04 08:57:50;;;;;;;7.50;4.47;;;11.30;99.90;;;;;;4943709;28;20483;-71
2024/02/04 09:00:19;;;;;;;3.97;2.20;;;11.20;99.90;;;;;;4940927;28;20495;-71
2024/02/04 09:02:46;;;;;;;3.97;3.43;;;11.20;99.90;;;;;;4944595;28;20460;-71
2024/02/04 09:05:13;;;;;;;5.70;3.40;;;11.20;99.90;;;;;;4940455;28;20575;-71
2024/02/04 09:07:40;;;;;;;7.40;2.23;;;11.20;99.90;;;;;;4934083;28;20625;-71
2024/02/04 09:10:08;;;;;;;4.80;3.60;;;11.20;99.90;;;;;;4935694;28;20491;-71
2024/02/04 09:12:34;;;;;;;3.40;3.10;;;11.30;99.90;;;;;;4934631;28;20472;-71
2024/02/04 09:15:01;;;;;;;15.40;3.00;;;11.40;99.90;;;;;;4942958;28;20471;-71
2024/02/04 09:17:29;;;;;;;4.60;2.80;;;11.30;99.90;;;;;;4937785;28;20586;-72
2024/02/04 09:19:56;;;;;;;4.67;3.33;;;11.40;99.90;;;;;;4935489;28;20834;-70
2024/02/04 09:22:23;;;;;;;4.57;2.70;;;11.40;99.90;;;;;;4935964;28;20555;-70
2024/02/04 09:24:50;;;;;;;10.23;3.10;;;11.40;99.90;;;;;;4933755;28;20827;-70
2024/02/04 09:27:16;;;;;;;3.30;1.60;;;11.40;99.90;;;;;;4936987;28;20475;-71
2024/02/04 09:29:43;;;;;;;4.73;3.00;;;11.30;99.90;;;;;;4939947;28;20463;-71
2024/02/04 09:32:10;;;;;;;4.23;2.00;;;11.10;99.90;;;;;;4926930;28;20990;-70
2024/02/04 09:34:38;;;;;;;4.13;2.23;;;11.00;99.90;;;;;;4932673;28;20464;-71
2024/02/04 09:37:05;;;;;;;2.53;1.40;;;11.10;99.90;;;;;;4932005;28;20969;-70
2024/02/04 09:39:32;;;;;;;1.90;1.57;;;11.10;99.90;;;;;;4932232;28;20821;-70
2024/02/04 09:41:59;;;;;;;1.93;1.73;;;11.10;99.90;;;;;;4937322;28;20464;-69
2024/02/04 09:44:26;;;;;;;1.37;1.13;;;11.10;99.90;;;;;;4929668;28;20476;-70
2024/02/04 09:46:58;;;;;;;2.27;1.97;;;11.10;99.90;;;;;;4931814;28;20486;-70
2024/02/04 09:49:26;;;;;;;2.00;1.60;;;11.10;99.90;;;;;;4928241;28;20826;-70
2024/02/04 09:51:55;;;;;;;1.93;1.70;;;10.80;99.90;;;;;;4927895;28;20566;-70
2024/02/04 09:54:24;;;;;;;2.50;1.60;;;10.70;99.90;;;;;;4933743;28;20460;-70
2024/02/04 09:56:51;;;;;;;0.97;0.87;;;10.60;99.90;;;;;;4934748;28;20587;-70
2024/02/04 09:59:17;;;;;;;1.87;1.47;;;10.50;99.90;;;;;;4932482;28;20788;-70
2024/02/04 10:01:44;;;;;;;1.60;1.33;;;10.50;99.90;;;;;;4936457;28;20518;-70
2024/02/04 10:04:11;;;;;;;4.60;2.00;;;10.30;99.90;;;;;;4929995;28;20289;-70
2024/02/04 10:06:38;;;;;;;1.90;1.37;;;10.30;99.90;;;;;;4930087;28;20479;-70
2024/02/04 10:09:06;;;;;;;1.93;1.73;;;10.20;99.90;;;;;;4930414;28;20472;-70
2024/02/04 10:11:33;;;;;;;1.90;1.20;;;10.20;99.90;;;;;;4934341;28;20468;-70
2024/02/04 10:14:00;;;;;;;2.07;1.40;;;10.30;99.90;;;;;;4937568;28;21006;-71
2024/02/04 10:16:27;;;;;;;1.93;1.37;;;10.20;99.90;;;;;;4930691;28;20574;-71
2024/02/04 10:18:56;;;;;;;1.90;1.37;;;10.20;99.90;;;;;;4936095;28;20936;-70
2024/02/04 10:21:24;;;;;;;1.80;1.33;;;10.10;99.90;;;;;;4931801;28;20478;-70
2024/02/04 10:23:52;;;;;;;2.37;1.93;;;10.20;99.90;;;;;;4938171;28;20538;-71
2024/02/04 10:26:21;;;;;;;3.20;1.73;;;10.30;99.90;;;;;;4935912;28;21012;-71
2024/02/04 10:28:48;;;;;;;2.60;1.57;;;10.40;99.90;;;;;;4930056;28;20496;-70
2024/02/04 10:31:15;;;;;;;4.60;2.23;;;10.40;99.90;;;;;;4924260;28;20483;-70
2024/02/04 10:33:41;;;;;;;2.63;1.67;;;10.50;99.90;;;;;;4922243;28;20472;-70
2024/02/04 10:36:08;;;;;;;2.70;2.10;;;10.60;99.90;;;;;;4933945;28;20982;-71
2024/02/04 10:38:35;;;;;;;2.87;2.10;;;10.60;99.90;;;;;;4929925;28;20571;-70
2024/02/04 10:41:03;;;;;;;2.47;2.23;;;10.60;99.90;;;;;;4935896;28;20518;-70
2024/02/04 10:43:33;;;;;;;3.33;2.70;;;10.60;99.90;;;;;;4928571;28;20974;-70
2024/02/04 10:46:06;;;;;;;3.40;2.20;;;10.70;99.90;;;;;;4934542;28;21085;-71
2024/02/04 10:48:41;;;;;;;3.43;2.20;;;10.80;99.90;;;;;;4926788;28;20543;-71
2024/02/04 10:51:12;;;;;;;3.50;2.57;;;10.70;99.90;;;;;;4935986;28;20551;-71
2024/02/04 10:53:41;;;;;;;3.87;3.00;;;10.80;99.90;;;;;;4932153;28;20558;-70
2024/02/04 10:56:14;;;;;;;5.90;3.57;;;10.80;99.90;;;;;;4922738;28;20495;-70
2024/02/04 10:58:44;;;;;;;9.30;5.55;;;10.80;99.90;;;;;;4935117;28;20474;-70
2024/02/04 11:01:12;;;;;;;12.13;4.20;;;10.90;99.90;;;;;;4926343;28;20312;-70
2024/02/04 11:03:40;;;;;;;6.60;5.13;;;11.00;99.90;;;;;;4935664;28;20472;-70
2024/02/04 11:06:08;;;;;;;9.53;6.60;;;11.20;99.90;;;;;;4939453;28;20487;-71
2024/02/04 11:08:35;;;;;;;9.77;4.90;;;11.20;99.90;;;;;;4934526;28;20475;-71
2024/02/04 11:11:02;;;;;;;2.70;2.10;;;11.40;99.90;;;;;;4937319;28;20469;-71
2024/02/04 11:13:30;;;;;;;8.60;5.03;;;11.70;99.90;;;;;;4937681;29;20805;-71
2024/02/04 11:16:01;;;;;;;7.00;4.20;;;11.80;99.90;;;;;;4940428;28;20494;-71
2024/02/04 11:19:02;;;;;;;4.43;2.80;;;12.00;99.90;;;;;;4938096;28;20506;-71
2024/02/04 11:22:06;;;;;;;5.40;2.70;;;12.00;99.90;;;;;;4943121;28;20596;-70
2024/02/04 11:24:53;;;;;;;5.53;3.60;;;12.00;99.90;;;;;;4944216;29;20581;-70
2024/02/04 11:28:01;;;;;;;4.50;2.90;;;12.10;99.90;;;;;;4937340;28;20471;-71
2024/02/04 11:30:28;;;;;;;5.73;4.87;;;12.10;99.90;;;;;;4934688;28;20934;-70
2024/02/04 11:32:56;;;;;;;6.33;3.10;;;12.00;99.90;;;;;;4923239;28;20486;-70
2024/02/04 11:35:23;;;;;;;5.37;3.50;;;11.90;99.90;;;;;;4944844;28;20490;-70
2024/02/04 11:37:50;;;;;;;4.57;2.90;;;11.90;99.90;;;;;;4933506;28;20495;-71
2024/02/04 11:40:18;;;;;;;4.53;2.00;;;11.90;99.90;;;;;;4936599;28;20477;-70
2024/02/04 11:42:46;;;;;;;3.53;2.90;;;11.90;99.90;;;;;;4926088;28;20483;-71
2024/02/04 11:45:14;;;;;;;4.47;2.47;;;11.90;99.90;;;;;;4942458;28;20479;-71
2024/02/04 11:47:41;;;;;;;2.80;2.50;;;11.90;99.90;;;;;;4933782;28;21210;-71
2024/02/04 11:50:10;;;;;;;3.93;2.30;;;12.00;99.90;;;;;;4940751;28;20491;-71
2024/02/04 11:52:37;;;;;;;4.07;2.80;;;12.10;99.90;;;;;;4930902;28;20464;-71
2024/02/04 11:55:06;;;;;;;4.87;2.57;;;12.10;99.90;;;;;;4940060;28;20478;-71
2024/02/04 11:57:34;;;;;;;3.40;2.80;;;12.20;99.90;;;;;;4934187;28;20556;-71
2024/02/04 12:00:02;;;;;;;7.10;2.60;;;12.30;99.90;;;;;;4935956;28;20479;-71
2024/02/04 12:02:29;;;;;;;2.50;1.57;;;12.20;99.90;;;;;;4925822;28;20970;-71
2024/02/04 12:04:56;;;;;;;3.00;2.20;;;12.20;99.90;;;;;;4940464;28;20518;-71
2024/02/04 12:07:24;;;;;;;4.87;2.40;;;12.20;99.90;;;;;;4943507;28;20824;-71
2024/02/04 12:09:51;;;;;;;1.87;1.50;;;12.00;99.90;;;;;;4939016;28;20929;-71
2024/02/04 12:12:20;;;;;;;1.47;1.20;;;12.00;99.90;;;;;;4938295;28;20460;-70
2024/02/04 12:14:47;;;;;;;2.33;1.60;;;11.90;99.90;;;;;;4936382;28;20528;-70
2024/02/04 12:17:14;;;;;;;1.53;1.30;;;11.80;99.90;;;;;;4942471;28;20471;-70
2024/02/04 12:19:41;;;;;;;4.33;3.93;;;11.90;99.90;;;;;;4939084;28;20484;-70
2024/02/04 12:22:09;;;;;;;4.87;3.53;;;11.90;99.90;;;;;;4941426;29;20477;-70
2024/02/04 12:24:37;;;;;;;3.87;3.33;;;11.80;99.90;;;;;;4943839;28;20534;-70
2024/02/04 12:27:05;;;;;;;5.10;2.43;;;11.80;99.90;;;;;;4942661;28;20515;-70
2024/02/04 12:29:33;;;;;;;5.23;2.67;;;11.70;99.90;;;;;;4942190;28;20483;-70
2024/02/04 12:32:00;;;;;;;5.73;3.83;;;11.50;99.90;;;;;;4943930;28;20575;-70
2024/02/04 12:34:26;;;;;;;2.90;2.10;;;11.50;99.90;;;;;;4943977;28;20571;-70
2024/02/04 12:36:59;;;;;;;4.30;2.90;;;11.50;99.90;;;;;;4945568;28;20487;-70
2024/02/04 12:39:26;;;;;;;1.90;1.70;;;11.60;99.90;;;;;;4931878;28;20516;-70
2024/02/04 12:41:54;;;;;;;4.03;2.20;;;11.60;99.90;;;;;;4936632;28;20499;-70
2024/02/04 12:44:22;;;;;;;3.10;2.50;;;11.60;99.90;;;;;;4938086;28;20491;-70
2024/02/04 12:46:52;;;;;;;4.07;2.40;;;11.60;99.90;;;;;;4938494;28;20493;-70
2024/02/04 12:49:21;;;;;;;16.63;8.00;;;11.50;99.90;;;;;;4937324;28;20577;-70
2024/02/04 12:51:48;;;;;;;4.03;3.73;;;11.60;99.90;;;;;;4934906;28;20831;-70
2024/02/04 12:54:15;;;;;;;7.30;3.80;;;11.50;99.90;;;;;;4940710;28;20468;-70
2024/02/04 12:56:47;;;;;;;3.70;3.37;;;11.60;99.90;;;;;;4944413;28;20498;-70
2024/02/04 12:59:26;;;;;;;2.43;1.60;;;11.60;99.90;;;;;;4942779;28;20492;-70